Mountain View Mountain View Mountain View Mountain View


Uccle  Uccle


Leuven  Leuven


Thunder radar more information blitzortung!


Rain radar more information rain snow radar


Visitez nos sites météorologiques autres:

Template documentation
and downloads

And another site



Rapports METAR proximité

   
EBAW - Antwerp
Mise à jour: 24-05-2017 01:50
Claires  
Claires  
   Vent: SO 5.6 km/h
Vent: SO 5.6 km/h
Température: 13°C
Point de rosée: 10°C
Humidité: 82%
Baromètre: 1024 hPa
visibilité: More than 10 km
Détails des nuages: Claires
EBAW 232350Z AUTO 22003KT CAVOK 13/10 Q1024
EBLG - Liège
Mise à jour: 24-05-2017 01:50
Partiellement nuageux  
Partiellement nuageux  
   Vent: NNO 3.7 km/h
Vent: NNO 3.7 km/h
Température: 14°C
Point de rosée: 8°C
Humidité: 67%
Baromètre: 1024 hPa
Nuageux: Partiellement nuageux
visibilité: More than 10 km
Détails des nuages: Partiellement nuageux 3600 ft
EBLG 232350Z 33002KT 9999 SCT036 14/08 Q1024 NOSIG
EBCV - Mons/Bergen
Mise à jour: 24-05-2017 01:55
Peu de nuages  
Peu de nuages  
   Vent: OSO 5.6 km/h
Vent: OSO 5.6 km/h
Température: 14°C
Point de rosée: 11°C
Humidité: 82%
Baromètre: 1024 hPa
Nuageux: Peu de nuages
visibilité: More than 10 km
Détails des nuages: Peu de nuages 5200 ft
EBCV 232355Z AUTO 25003KT 9999 FEW052/// 14/11 Q1024 BLU
EHBK - Maastricht
Mise à jour: 24-05-2017 01:55
Partiellement nuageux  
Partiellement nuageux  
   Vent: varie 3.7 km/h
Vent: varie 3.7 km/h
Température: 14°C
Point de rosée: 9°C
Humidité: 72%
Baromètre: 1023 hPa
Nuageux: Partiellement nuageux
visibilité: More than 10 km
Détails des nuages: Partiellement nuageux
EHBK 232355Z AUTO VRB02KT 9999 NSC 14/09 Q1023
ELLX - Luxemburg
Mise à jour: 24-05-2017 01:50
Peu de nuages  
Peu de nuages  
   Vent: NNO 9.3 km/h
Vent: NNO 9.3 km/h
Température: 12°C
Point de rosée: 9°C
Humidité: 82%
Baromètre: 1024 hPa
Nuageux: Peu de nuages
visibilité: More than 10 km
Détails des nuages: Peu de nuages 4700 ft
ELLX 232350Z 34005KT 9999 FEW047 12/09 Q1024 NOSIG
EBOS - Oostende
Mise à jour: 24-05-2017 01:50
Peu de nuages  
Peu de nuages  
   Vent: SSO 7.4 km/h
Vent: SSO 7.4 km/h
Température: 12°C
Point de rosée: 11°C
Humidité: 94%
Baromètre: 1024 hPa
Nuageux: Peu de nuages
visibilité: 8 km
Détails des nuages: Peu de nuages 4500 ft
EBOS 232350Z 21004KT 8000 FEW045 12/11 Q1024 NOSIG

Script développé par  Saratoga-weather.org Adapté pour le modèle par  Weerstation Leuven

Vous trouverez notre info météo Également à:

WeatherCloud

Weather Underground

AWEKAS

Citizen Weather Observer Program (CWOP)

Équipement que nous utilisons:

Station de Météo
Davis VP2

Programme Météo
Meteobridge

Provider
Webcreating

Davis VP2

Meteobridge

Webcreating

Mountain View Mountain View Mountain View Mountain View